x

Albatross Bank - 104nm South Of Kodiak, Ak (46078) Wave Buoy

6:50am - Thu 17th Apr 2014 All times are AKDT. -8 hours from GMT.

  • Sig Wave height 7.9ft
  • Swell Direction
  • Peak Period 10s
  • Average Period 7s
  • Wind
    16mph, 20mph gusts
  • Sea Temp 41°f
  • Air Temp 39°f
  • Sea Pressure 998.1mb
  • Albatross Bank - 104nm South Of Kodiak, Ak
  • Albatross Bank - 104nm South Of Kodiak, Ak

More Historic Weather Station data

Upgrade to MSW Pro to gain access to the past 30 days of data for over 8000 Wavebouys and Weather Stations around the globe.

Join Pro

Comparision Forecast

View Surf forecast
   
Thu 04/17 6:50am 8ft 10s 7s 16 20 mph 998.1mb 41f 39f
5:50am 8ft 12s 8s 16 18 mph 998.5mb 41f 39f
4:50am 8ft 10s 8s 16 20 mph 998.8mb 41f 39f
3:50am 8ft 11s 8s 16 18 mph 998.8mb 41f 39f
2:50am 8ft 14s 8s 18 20 mph 999mb 41f 39f
1:50am 8ft 13s 8s 13 18 mph 999.4mb 41f 39f
12:50am 7.5ft 13s 8s 13 16 mph 999.7mb 41f 39f
Wed 04/16 11:50pm 7.5ft 12s 8s 16 18 mph 999.9mb 41f 39f
10:50pm 8ft 11s 8s 13 16 mph 1000.3mb 41f 39f
9:50pm 7ft 11s 8s 16 18 mph 1000.4mb 41f 39f
8:50pm 8ft 11s 9s 13 16 mph 1000.4mb 41f 40f
7:50pm 7ft 12s 9s 11 13 mph 1000.8mb 41f 39f
6:50pm 7ft 11s 9s 9 11 mph 1001.1mb 41f 40f
5:50pm 7ft 12s 10s 11 13 mph 1001.3mb 41f 39f
4:50pm 7ft 13s 10s 7
mph
1001.6mb 41f 40f
3:50pm 6ft 14s 9s 7 9 mph 1002mb 41f 40f
2:50pm 6.5ft 14s 9s 4 9 mph 1002.2mb 41f 39f
1:50pm 6ft 10s 9s 4 7 mph 1002.6mb 41f 38f
12:50pm 6ft 10s 8s 7 9 mph 1002.9mb 41f 39f
11:50am 6ft 11s 8s 7 9 mph 1003mb 41f 39f
10:50am 6.5ft 11s 8s 7 9 mph 1003.2mb 41f 39f
9:50am 5ft 11s 8s 11
mph
1003.5mb 41f 39f
8:50am 6ft 10s 8s 9 11 mph 1003.8mb 41f 39f
7:50am 6ft 11s 9s 9 11 mph 1004mb 40f 39f
6:50am 6ft 11s 9s 9
mph
1004.2mb 40f 39f
5:50am 6ft 11s 9s 9 11 mph 1004.5mb 40f 39f
4:50am 6ft 11s 8s 9 11 mph 1004.7mb 40f 39f
3:50am 6ft 11s 8s 7 9 mph 1005mb 40f 39f
2:50am 5.5ft 11s 8s 4
mph
1005.3mb 40f 39f
1:50am 6ft 11s 8s 2 4 mph 1005.5mb 41f 38f
12:50am 5.5ft 10s 8s 2 4 mph 1005.8mb 41f 38f
Tue 04/15 11:50pm 6ft 11s 8s  -  mph 1006.2mb 41f 38f
10:50pm 6ft 11s 8s 2 4 mph 1006.5mb 41f 39f
9:50pm 6.5ft 10s 8s  -  4 mph 1006.6mb 41f 38f
8:50pm 6.5ft 11s 8s 2 7 mph 1006.7mb 41f 38f
7:50pm 6.5ft 10s 8s 4 7 mph 1006.7mb 41f 39f
6:50pm 6.5ft 11s 8s 2 4 mph 1006.8mb 42f 39f
5:50pm 6.5ft 11s 8s 2 4 mph 1006.8mb 42f 39f
4:50pm 6ft 11s 8s  -  2 mph 1007mb 41f 40f
3:50pm 6.5ft 11s 8s  -  2 mph 1006.9mb 41f 39f
2:50pm 7ft 11s 8s 4 7 mph 1007.2mb 41f 39f
1:50pm 6.5ft 11s 8s 4 7 mph 1007.4mb 40f 39f
12:50pm 8ft 11s 8s 4 7 mph 1007.6mb 41f 39f
11:50am 7.5ft 11s 8s 7 11 mph 1007.7mb 41f 39f
10:50am 7ft 11s 8s 9 11 mph 1007.9mb 41f 39f
9:50am 8ft 11s 8s 4
mph
1008.3mb 40f 39f
8:50am 8ft 11s 8s 4 7 mph 1008.4mb 40f 39f
7:50am 7ft 10s 8s 4 7 mph 1008.3mb 40f 39f
6:50am 9.5ft 11s 9s 7 9 mph 1007.6mb 40f 39f
5:50am 8.5ft 10s 8s 9 13 mph 1007.5mb 40f 39f
4:50am 8ft 11s 8s 9 13 mph 1007.9mb 40f 38f
3:50am 7.5ft 12s 8s 4 9 mph 1009.3mb 40f 39f
2:50am 9ft 11s 9s 7 9 mph 1009.4mb 40f 40f
1:50am 8ft 11s 8s 9 13 mph 1009.1mb 40f 39f
12:50am 9.5ft 11s 9s 11 18 mph 1008.9mb 40f 39f
Mon 04/14 11:50pm 9ft 12s 9s 13 18 mph 1009.1mb 40f 39f
10:50pm 9.5ft 11s 8s 11 16 mph 1009.8mb 40f 39f
9:50pm 10ft 13s 9s 11 13 mph 1010.1mb 40f 39f
8:50pm 10ft 13s 8s 13 20 mph 1010.2mb 40f 40f
7:50pm 10ft 12s 8s 11 16 mph 1010.2mb 40f 39f
6:50pm 11ft 11s 8s 13 18 mph 1010.4mb 40f 40f
5:50pm 10.5ft 11s 8s 13 18 mph 1010.5mb 40f 40f
4:50pm 9.5ft 11s 7s 16 20 mph 1010.3mb 40f 40f
2:50pm 10ft 9s 7s 18 22 mph 1010.5mb 40f 40f
1:50pm 9.5ft 9s 7s 18 22 mph 1010.4mb 40f 40f
12:50pm 9ft 10s 7s 20 22 mph 1010.3mb 40f 40f
11:50am 9ft 9s 7s 20 25 mph 1010.3mb 40f 40f
10:50am 8ft 8s 6s 18 22 mph 1009.9mb 40f 40f
9:50am 9ft 9s 6s 20 27 mph 1009.5mb 40f 40f
8:50am 8ft 9s 6s 22 27 mph 1009.4mb 40f 40f
7:50am 9ft 8s 6s 25 29 mph 1009mb 40f 40f
6:50am 8.5ft 8s 6s 22 25 mph 1008.9mb 40f 40f
5:50am 8ft 8s 6s 22 29 mph 1009mb 40f 40f
3:50am 7.5ft 8s 6s 22 27 mph 1009.2mb 40f 40f
2:50am 7.5ft 8s 6s 22 27 mph 1009.5mb 40f 40f
1:50am 7.5ft 8s 6s 22 25 mph 1009.8mb 40f 40f
12:50am 7ft 9s 6s 22 25 mph 1010mb 40f 40f
Sun 04/13 11:50pm 7ft 9s 6s 20 25 mph 1010.4mb 40f 40f
10:50pm 7.5ft 9s 6s 20 25 mph 1011.1mb 40f 40f
9:50pm 6.5ft 9s 6s 20 25 mph 1011.5mb 40f 40f
8:50pm 7.5ft 9s 7s 20 22 mph 1012mb 40f 40f
7:50pm 7.5ft 9s 7s 18 22 mph 1012.6mb 40f 40f
6:50pm 8ft 8s 7s 18 22 mph 1013.2mb 40f 40f
5:50pm 9ft 9s 7s 18 22 mph 1013.7mb 40f 40f